Time;durP1;ratioP1;P1;durP2;ratioP2;P2;SDS_P1;SDS_P2;PMS_P1;PMS_P2;Temp;Humidity;BMP_temperature;BMP_pressure;BME280_temperature;BME280_humidity;BME280_pressure;Samples;Min_cycle;Max_cycle;Signal;HPM_P1;HPM_P2
2022/09/18 07:13:05;;;;;;;;;;;;;;;;;;6236481;23;19950;-76
2022/09/18 07:15:37;;;;;;;;;;;;;;;;;;6240304;23;19911;-75
2022/09/18 07:18:06;;;;;;;;;;;;;;;;;;6241204;23;19912;-76
2022/09/18 07:20:32;;;;;;;;;;;;;;;;;;6214827;23;19911;-78
2022/09/18 07:22:58;;;;;;;;;;;;;;;;;;6240189;23;19918;-79
2022/09/18 07:25:36;;;;;;;;;;;;;;;;;;6240165;23;19954;-77
2022/09/18 07:28:01;;;;;;;;;;;;;;;;;;6240518;23;20303;-77
2022/09/18 07:30:27;;;;;;;;;;;;;;;;;;6215515;23;19912;-77
2022/09/18 07:32:53;;;;;;;;;;;;;;;;;;6215219;23;20715;-77
2022/09/18 07:35:23;;;;;;;;;;;;;;;;;;6240334;23;19939;-77
2022/09/18 07:37:49;;;;;;;;;;;;;;;;;;6239724;23;19919;-80
2022/09/18 07:40:24;;;;;;;;;;;;;;;;;;6239970;23;19934;-80
2022/09/18 07:43:03;;;;;;;;;;;;;;;;;;6239484;23;19912;-75
2022/09/18 07:45:29;;;;;;;;;;;;;;;;;;6239751;23;20001;-76
2022/09/18 07:47:54;;;;;;;;;;;;;;;;;;6240372;23;20344;-77
2022/09/18 07:50:21;;;;;;;;;;;;;;;;;;6240309;23;19946;-76
2022/09/18 07:52:48;;;;;;;;;;;;;;;;;;6240035;23;19911;-75
2022/09/18 07:55:14;;;;;;;;;;;;;;;;;;6245942;23;19911;-77
2022/09/18 07:57:39;;;;;;;;;;;;;;;;;;6226259;23;19918;-78
2022/09/18 08:00:15;;;;;;;;;;;;;;;;;;6240439;23;19912;-76
2022/09/18 08:02:41;;;;;;;;;;;;;;;;;;6241923;23;19912;-79
2022/09/18 08:05:07;;;;;;;;;;;;;;;;;;6240944;23;20336;-77
2022/09/18 08:07:46;;;;;;;;;;;;;;;;;;6240754;23;19911;-77
2022/09/18 08:10:35;;;;;;;;;;;;;;;;;;6203173;23;19919;-79
2022/09/18 08:13:18;;;;;;;;;;;;;;;;;;6253418;23;20085;-79
2022/09/18 08:16:08;;;;;;;;;;;;;;;;;;6213192;23;19912;-75
2022/09/18 08:19:03;;;;;;;;;;;;;;;;;;6222844;23;19911;-81
2022/09/18 08:21:36;;;;;;;;;;;;;;;;;;6239709;23;19911;-80
2022/09/18 08:24:06;;;;;;;;;;;;;;;;;;6213283;23;19919;-79
2022/09/18 08:26:34;;;;;;;;;;;;;;;;;;6239074;23;20352;-79
2022/09/18 08:29:00;;;;;;;;;;;;;;;;;;6214987;23;19990;-80
2022/09/18 08:31:25;;;;;;;;;;;;;;;;;;6239963;23;19954;-81
2022/09/18 08:33:54;;;;;;;;;;;;;;;;;;6238762;23;19915;-79
2022/09/18 08:36:20;;;;;;;;;;;;;;;;;;6239706;23;20408;-80
2022/09/18 08:38:56;;;;;;;;;;;;;;;;;;6239434;23;19982;-80
2022/09/18 08:41:40;;;;;;;;;;;;;;;;;;6240754;23;19911;-79
2022/09/18 08:44:06;;;;;;;;;;;;;;;;;;6238285;23;19919;-79
2022/09/18 08:46:34;;;;;;;;;;;;;;;;;;6240449;23;19987;-80
2022/09/18 08:49:02;;;;;;;;;;;;;;;;;;6239197;23;19912;-77
2022/09/18 08:51:29;;;;;;;;;;;;;;;;;;6240432;23;19919;-75
2022/09/18 08:53:55;;;;;;;;;;;;;;;;;;6212994;23;20042;-76
2022/09/18 08:56:33;;;;;;;;;;;;;;;;;;6216250;23;19919;-74
2022/09/18 08:59:26;;;;;;;;;;;;;;;;;;6235726;23;19912;-76
2022/09/18 09:01:53;;;;;;;;;;;;;;;;;;6213960;23;19912;-76
2022/09/18 09:04:18;;;;;;;;;;;;;;;;;;6240597;23;20415;-74
2022/09/18 09:06:44;;;;;;;;;;;;;;;;;;6240986;23;19939;-74
2022/09/18 09:09:15;;;;;;;;;;;;;;;;;;6239476;22;19918;-74
2022/09/18 09:11:41;;;;;;;;;;;;;;;;;;6238976;23;20407;-74
2022/09/18 09:14:09;;;;;;;;;;;;;;;;;;6237353;23;19961;-74
2022/09/18 09:16:36;;;;;;;;;;;;;;;;;;6239525;23;19994;-78
2022/09/18 09:19:02;;;;;;;;;;;;;;;;;;6211737;23;20332;-75
2022/09/18 09:21:29;;;;;;;;;;;;;;;;;;6237408;23;19911;-79
2022/09/18 09:23:54;;;;;;;;;;;;;;;;;;6238811;23;20249;-75
2022/09/18 09:26:36;;;;;;;;;;;;;;;;;;6238954;23;19947;-75
2022/09/18 09:29:15;;;;;;;;;;;;;;;;;;6241040;23;19938;-75
2022/09/18 09:31:59;;;;;;;;;;;;;;;;;;6240475;23;19912;-75
2022/09/18 09:34:57;;;;;;;;;;;;;;;;;;6188731;23;19981;-76
2022/09/18 09:37:32;;;;;;;;;;;;;;;;;;6215589;23;20295;-73
2022/09/18 09:39:57;;;;;;;;;;;;;;;;;;6238310;23;19946;-76
2022/09/18 09:42:24;;;;;;;;;;;;;;;;;;6240252;23;20360;-75
2022/09/18 09:44:50;;;;;;;;;;;;;;;;;;6238876;23;19920;-75
2022/09/18 09:47:16;;;;;;;;;;;;;;;;;;6238635;23;19994;-73
2022/09/18 09:49:42;;;;;;;;;;;;;;;;;;6238126;23;19935;-74
2022/09/18 09:52:07;;;;;;;;;;;;;;;;;;6241327;23;20284;-72
2022/09/18 09:54:33;;;;;;;;;;;;;;;;;;6239650;23;19965;-76
2022/09/18 09:56:58;;;;;;;;;;;;;;;;;;6240868;23;19912;-73
2022/09/18 09:59:24;;;;;;;;;;;;;;;;;;6213844;23;19957;-73
2022/09/18 10:02:10;;;;;;;;;;;;;;;;;;6224346;23;19911;-74
2022/09/18 10:04:35;;;;;;;;;;;;;;;;;;6238612;23;19919;-76
2022/09/18 10:07:01;;;;;;;;;;;;;;;;;;6240727;23;19912;-73
2022/09/18 10:09:27;;;;;;;;;;;;;;;;;;6213527;23;19982;-73
2022/09/18 10:11:53;;;;;;;;;;;;;;;;;;6237752;23;19912;-73
2022/09/18 10:14:19;;;;;;;;;;;;;;;;;;6207495;23;19920;-72
2022/09/18 10:16:45;;;;;;;;;;;;;;;;;;6232833;23;20356;-72
2022/09/18 10:19:12;;;;;;;;;;;;;;;;;;6236689;23;19931;-73
2022/09/18 10:21:37;;;;;;;;;;;;;;;;;;6238199;23;19911;-72
2022/09/18 10:24:04;;;;;;;;;;;;;;;;;;6212660;23;19916;-75
2022/09/18 10:26:30;;;;;;;;;;;;;;;;;;6238500;23;19919;-74
2022/09/18 10:28:55;;;;;;;;;;;;;;;;;;6211301;23;19919;-73
2022/09/18 10:31:21;;;;;;;;;;;;;;;;;;6212338;23;20323;-73
2022/09/18 10:33:51;;;;;;;;;;;;;;;;;;6211767;23;19912;-73
2022/09/18 10:36:21;;;;;;;;;;;;;;;;;;6238722;23;19916;-74
2022/09/18 10:38:47;;;;;;;;;;;;;;;;;;6238612;23;20225;-73
2022/09/18 10:41:22;;;;;;;;;;;;;;;;;;6239139;23;20344;-73
2022/09/18 10:43:48;;;;;;;;;;;;;;;;;;6238626;23;19947;-73
2022/09/18 10:46:14;;;;;;;;;;;;;;;;;;6214274;23;20341;-73
2022/09/18 10:48:41;;;;;;;;;;;;;;;;;;6238525;23;19915;-74
2022/09/18 10:51:07;;;;;;;;;;;;;;;;;;6240629;23;19986;-71
2022/09/18 10:53:42;;;;;;;;;;;;;;;;;;6235801;23;20260;-73
2022/09/18 10:56:21;;;;;;;;;;;;;;;;;;6239086;23;19912;-74
2022/09/18 10:58:51;;;;;;;;;;;;;;;;;;6238901;23;19962;-73
2022/09/18 11:01:16;;;;;;;;;;;;;;;;;;6239267;23;19919;-73
2022/09/18 11:03:46;;;;;;;;;;;;;;;;;;6214115;23;19926;-72
2022/09/18 11:06:17;;;;;;;;;;;;;;;;;;6237550;23;20268;-73
2022/09/18 11:08:44;;;;;;;;;;;;;;;;;;6238134;22;19912;-72
2022/09/18 11:11:09;;;;;;;;;;;;;;;;;;6240645;23;19973;-73
2022/09/18 11:13:36;;;;;;;;;;;;;;;;;;6209591;23;19919;-71
2022/09/18 11:16:04;;;;;;;;;;;;;;;;;;6239020;23;19912;-73
2022/09/18 11:18:29;;;;;;;;;;;;;;;;;;6211881;23;20270;-72
2022/09/18 11:20:56;;;;;;;;;;;;;;;;;;6238486;23;19912;-72
2022/09/18 11:23:22;;;;;;;;;;;;;;;;;;6239094;23;19911;-72
2022/09/18 11:25:52;;;;;;;;;;;;;;;;;;6239064;23;19915;-72
2022/09/18 11:28:21;;;;;;;;;;;;;;;;;;6212971;23;19915;-71
2022/09/18 11:30:47;;;;;;;;;;;;;;;;;;6238628;23;20348;-72
2022/09/18 11:33:13;;;;;;;;;;;;;;;;;;6212918;23;20061;-72
2022/09/18 11:35:38;;;;;;;;;;;;;;;;;;6238614;23;20374;-72
2022/09/18 11:38:06;;;;;;;;;;;;;;;;;;6237898;23;19908;-72
2022/09/18 11:40:34;;;;;;;;;;;;;;;;;;6235342;23;19911;-72
2022/09/18 11:43:04;;;;;;;;;;;;;;;;;;6238144;23;20324;-71
2022/09/18 11:45:30;;;;;;;;;;;;;;;;;;6238567;23;19923;-72
2022/09/18 11:47:56;;;;;;;;;;;;;;;;;;6214209;23;19918;-72
2022/09/18 11:50:22;;;;;;;;;;;;;;;;;;6239534;23;19911;-71
2022/09/18 11:52:48;;;;;;;;;;;;;;;;;;6240051;23;20430;-73
2022/09/18 11:55:16;;;;;;;;;;;;;;;;;;6235552;23;20417;-73
2022/09/18 11:57:41;;;;;;;;;;;;;;;;;;6239437;23;19939;-71
2022/09/18 12:00:08;;;;;;;;;;;;;;;;;;6214956;23;19911;-72
2022/09/18 12:02:40;;;;;;;;;;;;;;;;;;6241317;23;19994;-71
2022/09/18 12:05:05;;;;;;;;;;;;;;;;;;6214784;23;19950;-71
2022/09/18 12:07:32;;;;;;;;;;;;;;;;;;6240223;23;19918;-71
2022/09/18 12:09:57;;;;;;;;;;;;;;;;;;6239712;22;20006;-71
2022/09/18 12:12:23;;;;;;;;;;;;;;;;;;6238906;23;19987;-70
2022/09/18 12:14:49;;;;;;;;;;;;;;;;;;6213620;23;19912;-70
2022/09/18 12:17:18;;;;;;;;;;;;;;;;;;6240691;23;19979;-71
2022/09/18 12:19:48;;;;;;;;;;;;;;;;;;6241778;23;19915;-69
2022/09/18 12:22:14;;;;;;;;;;;;;;;;;;6210011;23;19919;-70
2022/09/18 12:24:40;;;;;;;;;;;;;;;;;;6238876;23;19966;-68
2022/09/18 12:27:05;;;;;;;;;;;;;;;;;;6238448;23;19911;-70
2022/09/18 12:29:31;;;;;;;;;;;;;;;;;;6214080;23;20010;-69
2022/09/18 12:31:57;;;;;;;;;;;;;;;;;;6240974;23;19918;-70
2022/09/18 12:34:22;;;;;;;;;;;;;;;;;;6240158;23;19912;-68
2022/09/18 12:36:47;;;;;;;;;;;;;;;;;;6238717;23;20406;-67
2022/09/18 12:39:13;;;;;;;;;;;;;;;;;;6240433;23;19912;-69
2022/09/18 12:41:38;;;;;;;;;;;;;;;;;;6240735;23;20256;-69
2022/09/18 12:44:04;;;;;;;;;;;;;;;;;;6240678;23;19919;-69
2022/09/18 12:46:30;;;;;;;;;;;;;;;;;;6239660;23;19965;-69
2022/09/18 12:48:56;;;;;;;;;;;;;;;;;;6238073;23;20306;-68
2022/09/18 12:51:21;;;;;;;;;;;;;;;;;;6240518;23;20352;-69
2022/09/18 12:53:47;;;;;;;;;;;;;;;;;;6240398;23;19911;-68
2022/09/18 12:56:12;;;;;;;;;;;;;;;;;;6213218;23;19912;-66
2022/09/18 12:58:38;;;;;;;;;;;;;;;;;;6240706;23;19915;-73
2022/09/18 13:01:04;;;;;;;;;;;;;;;;;;6239305;23;20263;-72
2022/09/18 13:03:29;;;;;;;;;;;;;;;;;;6238749;23;20327;-72
2022/09/18 13:05:55;;;;;;;;;;;;;;;;;;6238095;23;19911;-73
2022/09/18 13:08:20;;;;;;;;;;;;;;;;;;6237777;23;20532;-73
2022/09/18 13:10:46;;;;;;;;;;;;;;;;;;6238843;22;19918;-73
2022/09/18 13:13:12;;;;;;;;;;;;;;;;;;6237233;23;19919;-74
2022/09/18 13:15:38;;;;;;;;;;;;;;;;;;6238661;23;19996;-73
2022/09/18 13:18:03;;;;;;;;;;;;;;;;;;6212556;23;20284;-73
2022/09/18 13:20:29;;;;;;;;;;;;;;;;;;6239054;23;19965;-72
2022/09/18 13:22:54;;;;;;;;;;;;;;;;;;6236714;23;19990;-72
2022/09/18 13:25:20;;;;;;;;;;;;;;;;;;6236912;23;19924;-75
2022/09/18 13:27:45;;;;;;;;;;;;;;;;;;6238270;23;19985;-74
2022/09/18 13:30:11;;;;;;;;;;;;;;;;;;6238176;23;20299;-74
2022/09/18 13:32:37;;;;;;;;;;;;;;;;;;6238357;23;19912;-75
2022/09/18 13:35:02;;;;;;;;;;;;;;;;;;6238209;23;19966;-75
2022/09/18 13:37:29;;;;;;;;;;;;;;;;;;6239139;23;19915;-72
2022/09/18 13:39:55;;;;;;;;;;;;;;;;;;6213443;23;20356;-73
2022/09/18 13:42:20;;;;;;;;;;;;;;;;;;6240456;23;19923;-74
2022/09/18 13:44:46;;;;;;;;;;;;;;;;;;6241091;23;19927;-74
2022/09/18 13:47:12;;;;;;;;;;;;;;;;;;6244880;23;20435;-74
2022/09/18 13:49:38;;;;;;;;;;;;;;;;;;6239273;23;19911;-73
2022/09/18 13:52:04;;;;;;;;;;;;;;;;;;6240312;23;19912;-74
2022/09/18 13:54:30;;;;;;;;;;;;;;;;;;6240528;23;19912;-75
2022/09/18 13:56:55;;;;;;;;;;;;;;;;;;6238205;23;19942;-74
2022/09/18 13:59:21;;;;;;;;;;;;;;;;;;6212491;23;20345;-74
2022/09/18 14:01:47;;;;;;;;;;;;;;;;;;6240052;23;20384;-75
2022/09/18 14:04:12;;;;;;;;;;;;;;;;;;6239004;23;20261;-73
2022/09/18 14:06:38;;;;;;;;;;;;;;;;;;6240546;23;19911;-74
2022/09/18 14:09:04;;;;;;;;;;;;;;;;;;6238494;22;20049;-74
2022/09/18 14:11:29;;;;;;;;;;;;;;;;;;6240267;23;19911;-73
2022/09/18 14:13:55;;;;;;;;;;;;;;;;;;6240387;23;19920;-74
2022/09/18 14:16:22;;;;;;;;;;;;;;;;;;6242432;23;19922;-71
2022/09/18 14:18:48;;;;;;;;;;;;;;;;;;6242055;23;19912;-72
2022/09/18 14:21:13;;;;;;;;;;;;;;;;;;6240074;23;19946;-73
2022/09/18 14:23:39;;;;;;;;;;;;;;;;;;6240305;23;20010;-72
2022/09/18 14:26:05;;;;;;;;;;;;;;;;;;6239581;23;19911;-74
2022/09/18 14:28:31;;;;;;;;;;;;;;;;;;6239143;23;19915;-73
2022/09/18 14:30:56;;;;;;;;;;;;;;;;;;6239795;23;20187;-73
2022/09/18 14:33:22;;;;;;;;;;;;;;;;;;6239966;23;19916;-73
2022/09/18 14:35:48;;;;;;;;;;;;;;;;;;6240033;23;19965;-74
2022/09/18 14:38:14;;;;;;;;;;;;;;;;;;6240269;23;20451;-73
2022/09/18 14:40:39;;;;;;;;;;;;;;;;;;6211845;23;19938;-73
2022/09/18 14:43:05;;;;;;;;;;;;;;;;;;6239454;23;19911;-73
2022/09/18 14:45:30;;;;;;;;;;;;;;;;;;6238507;23;19945;-73
2022/09/18 14:47:56;;;;;;;;;;;;;;;;;;6238285;23;19912;-73
2022/09/18 14:50:21;;;;;;;;;;;;;;;;;;6240079;23;19987;-73
2022/09/18 14:52:47;;;;;;;;;;;;;;;;;;6239138;23;19970;-74
2022/09/18 14:55:13;;;;;;;;;;;;;;;;;;6239576;23;20340;-73
2022/09/18 14:57:39;;;;;;;;;;;;;;;;;;6239970;23;19911;-74
2022/09/18 15:00:06;;;;;;;;;;;;;;;;;;6215226;23;19912;-74
2022/09/18 15:02:32;;;;;;;;;;;;;;;;;;6243502;23;19981;-73
2022/09/18 15:05:00;;;;;;;;;;;;;;;;;;6242377;23;20352;-76
2022/09/18 15:07:25;;;;;;;;;;;;;;;;;;6242745;23;20328;-74
2022/09/18 15:09:52;;;;;;;;;;;;;;;;;;6213388;23;19923;-78
2022/09/18 15:12:18;;;;;;;;;;;;;;;;;;6240518;23;19915;-78
2022/09/18 15:14:43;;;;;;;;;;;;;;;;;;6239977;23;19934;-80
2022/09/18 15:17:09;;;;;;;;;;;;;;;;;;6238710;23;19912;-78
2022/09/18 15:19:35;;;;;;;;;;;;;;;;;;6241404;23;19911;-76
2022/09/18 15:22:00;;;;;;;;;;;;;;;;;;6241186;23;20380;-75
2022/09/18 15:24:26;;;;;;;;;;;;;;;;;;6241629;23;20418;-77
2022/09/18 15:26:52;;;;;;;;;;;;;;;;;;6241940;23;20018;-77
2022/09/18 15:29:18;;;;;;;;;;;;;;;;;;6241097;23;19916;-76
2022/09/18 15:31:43;;;;;;;;;;;;;;;;;;6241942;23;19915;-76
2022/09/18 15:34:09;;;;;;;;;;;;;;;;;;6241371;23;19912;-73
2022/09/18 15:36:34;;;;;;;;;;;;;;;;;;6241770;23;19998;-73
2022/09/18 15:39:00;;;;;;;;;;;;;;;;;;6238471;23;20376;-73
2022/09/18 15:41:26;;;;;;;;;;;;;;;;;;6241948;23;19930;-73
2022/09/18 15:43:51;;;;;;;;;;;;;;;;;;6240428;23;19930;-73
2022/09/18 15:46:17;;;;;;;;;;;;;;;;;;6241214;23;19912;-73
2022/09/18 15:48:43;;;;;;;;;;;;;;;;;;6241458;23;19915;-74
2022/09/18 15:51:08;;;;;;;;;;;;;;;;;;6240900;23;19912;-74
2022/09/18 15:53:35;;;;;;;;;;;;;;;;;;6240474;23;19911;-74
2022/09/18 15:56:01;;;;;;;;;;;;;;;;;;6212700;23;20006;-73
2022/09/18 15:58:27;;;;;;;;;;;;;;;;;;6214567;23;20269;-73
2022/09/18 16:00:52;;;;;;;;;;;;;;;;;;6240809;23;19907;-73
2022/09/18 16:03:18;;;;;;;;;;;;;;;;;;6240928;23;19916;-73
2022/09/18 16:05:43;;;;;;;;;;;;;;;;;;6241188;23;19923;-73
2022/09/18 16:08:09;;;;;;;;;;;;;;;;;;6239333;23;19919;-73
2022/09/18 16:10:35;;;;;;;;;;;;;;;;;;6240161;22;19911;-73
2022/09/18 16:13:01;;;;;;;;;;;;;;;;;;6240052;23;19958;-74
2022/09/18 16:15:27;;;;;;;;;;;;;;;;;;6240920;23;19919;-74
2022/09/18 16:17:53;;;;;;;;;;;;;;;;;;6241061;23;20026;-74
2022/09/18 16:20:18;;;;;;;;;;;;;;;;;;6240094;23;20486;-74
2022/09/18 16:22:45;;;;;;;;;;;;;;;;;;6240681;23;19915;-74
2022/09/18 16:25:10;;;;;;;;;;;;;;;;;;6238698;23;19920;-74
2022/09/18 16:27:36;;;;;;;;;;;;;;;;;;6214025;23;19965;-74
2022/09/18 16:30:01;;;;;;;;;;;;;;;;;;6240605;23;19911;-74
2022/09/18 16:32:28;;;;;;;;;;;;;;;;;;6239267;23;20372;-74
2022/09/18 16:34:54;;;;;;;;;;;;;;;;;;6240405;23;19920;-73
2022/09/18 16:37:21;;;;;;;;;;;;;;;;;;6240497;23;19911;-74
2022/09/18 16:39:47;;;;;;;;;;;;;;;;;;6240605;23;20237;-74
2022/09/18 16:42:12;;;;;;;;;;;;;;;;;;6240414;23;19918;-73
2022/09/18 16:44:38;;;;;;;;;;;;;;;;;;6239712;23;19927;-73
2022/09/18 16:47:03;;;;;;;;;;;;;;;;;;6240784;23;19935;-74
2022/09/18 16:49:29;;;;;;;;;;;;;;;;;;6240539;23;20460;-74
2022/09/18 16:51:56;;;;;;;;;;;;;;;;;;6240288;23;19911;-74
2022/09/18 16:54:22;;;;;;;;;;;;;;;;;;6240725;23;19916;-73
2022/09/18 16:56:50;;;;;;;;;;;;;;;;;;6240288;23;19939;-76
2022/09/18 16:59:16;;;;;;;;;;;;;;;;;;6240558;23;20037;-75
2022/09/18 17:01:42;;;;;;;;;;;;;;;;;;6240978;23;19970;-77
2022/09/18 17:04:07;;;;;;;;;;;;;;;;;;6213552;23;19920;-77
2022/09/18 17:06:33;;;;;;;;;;;;;;;;;;6240829;23;19918;-76
2022/09/18 17:08:59;;;;;;;;;;;;;;;;;;6239284;22;19911;-76
2022/09/18 17:11:24;;;;;;;;;;;;;;;;;;6241532;23;19912;-82
2022/09/18 17:13:50;;;;;;;;;;;;;;;;;;6240362;23;19947;-77
2022/09/18 17:16:17;;;;;;;;;;;;;;;;;;6240832;23;19911;-76
2022/09/18 17:18:43;;;;;;;;;;;;;;;;;;6240958;23;19911;-79
2022/09/18 17:21:09;;;;;;;;;;;;;;;;;;6239800;23;20321;-75
2022/09/18 17:23:35;;;;;;;;;;;;;;;;;;6239344;23;19958;-75
2022/09/18 17:26:01;;;;;;;;;;;;;;;;;;6240445;23;19991;-76
2022/09/18 17:28:26;;;;;;;;;;;;;;;;;;6240421;23;19947;-76
2022/09/18 17:30:53;;;;;;;;;;;;;;;;;;6240168;23;19912;-74
2022/09/18 17:33:18;;;;;;;;;;;;;;;;;;6239349;23;19922;-75
2022/09/18 17:35:44;;;;;;;;;;;;;;;;;;6238950;23;20533;-76
2022/09/18 17:38:09;;;;;;;;;;;;;;;;;;6240600;23;19991;-75
2022/09/18 17:40:35;;;;;;;;;;;;;;;;;;6243572;23;19998;-75
2022/09/18 17:43:01;;;;;;;;;;;;;;;;;;6240250;23;19915;-74
2022/09/18 17:45:27;;;;;;;;;;;;;;;;;;6239889;23;20348;-74
2022/09/18 17:47:52;;;;;;;;;;;;;;;;;;6238383;23;19919;-77
2022/09/18 17:50:19;;;;;;;;;;;;;;;;;;6240429;23;19919;-75
2022/09/18 17:52:44;;;;;;;;;;;;;;;;;;6240608;23;19951;-73
2022/09/18 17:55:10;;;;;;;;;;;;;;;;;;6213133;23;19911;-72
2022/09/18 17:57:37;;;;;;;;;;;;;;;;;;6240497;23;20426;-74
2022/09/18 18:00:02;;;;;;;;;;;;;;;;;;6239245;23;19916;-75
2022/09/18 18:02:37;;;;;;;;;;;;;;;;;;6240414;23;19912;-77
2022/09/18 18:05:02;;;;;;;;;;;;;;;;;;6240265;23;20311;-77
2022/09/18 18:07:29;;;;;;;;;;;;;;;;;;6240526;23;19911;-76
2022/09/18 18:09:54;;;;;;;;;;;;;;;;;;6240281;22;20352;-78
2022/09/18 18:12:20;;;;;;;;;;;;;;;;;;6239750;23;19918;-74
2022/09/18 18:14:46;;;;;;;;;;;;;;;;;;6239943;23;20238;-74
2022/09/18 18:17:12;;;;;;;;;;;;;;;;;;6238421;23;19916;-75
2022/09/18 18:19:38;;;;;;;;;;;;;;;;;;6238980;23;19908;-73
2022/09/18 18:22:03;;;;;;;;;;;;;;;;;;6238674;23;19918;-75
2022/09/18 18:24:29;;;;;;;;;;;;;;;;;;6239255;23;20369;-73
2022/09/18 18:26:56;;;;;;;;;;;;;;;;;;6240319;23;19938;-73
2022/09/18 18:29:21;;;;;;;;;;;;;;;;;;6239112;23;20756;-74
2022/09/18 18:31:48;;;;;;;;;;;;;;;;;;6190089;23;19919;-74
2022/09/18 18:34:14;;;;;;;;;;;;;;;;;;6241341;23;19912;-73
2022/09/18 18:36:39;;;;;;;;;;;;;;;;;;6241085;23;19918;-74
2022/09/18 18:39:08;;;;;;;;;;;;;;;;;;6241600;23;19935;-74
2022/09/18 18:41:34;;;;;;;;;;;;;;;;;;6240434;23;19935;-74
2022/09/18 18:44:00;;;;;;;;;;;;;;;;;;6239720;23;20260;-76
2022/09/18 18:46:26;;;;;;;;;;;;;;;;;;6241304;23;20402;-76
2022/09/18 18:48:51;;;;;;;;;;;;;;;;;;6238773;23;19915;-76
2022/09/18 18:51:17;;;;;;;;;;;;;;;;;;6238909;23;19912;-75
2022/09/18 18:53:42;;;;;;;;;;;;;;;;;;6240644;23;20343;-77
2022/09/18 18:56:08;;;;;;;;;;;;;;;;;;6241966;23;19911;-76
2022/09/18 18:58:33;;;;;;;;;;;;;;;;;;6242732;23;19912;-76
2022/09/18 19:00:59;;;;;;;;;;;;;;;;;;6242059;23;19912;-76
2022/09/18 19:03:25;;;;;;;;;;;;;;;;;;6241638;23;20363;-76
2022/09/18 19:05:51;;;;;;;;;;;;;;;;;;6215219;23;19927;-75
2022/09/18 19:08:17;;;;;;;;;;;;;;;;;;6241066;23;19911;-76
2022/09/18 19:10:44;;;;;;;;;;;;;;;;;;6242006;22;19919;-76
2022/09/18 19:13:10;;;;;;;;;;;;;;;;;;6242004;23;20663;-76
2022/09/18 19:15:35;;;;;;;;;;;;;;;;;;6241085;23;19911;-76
2022/09/18 19:18:02;;;;;;;;;;;;;;;;;;6241541;23;19915;-76
2022/09/18 19:20:27;;;;;;;;;;;;;;;;;;6242371;23;19965;-76
2022/09/18 19:22:56;;;;;;;;;;;;;;;;;;6242274;23;19911;-76
2022/09/18 19:25:22;;;;;;;;;;;;;;;;;;6242267;23;19969;-76
2022/09/18 19:27:47;;;;;;;;;;;;;;;;;;6241613;23;19912;-76
2022/09/18 19:30:13;;;;;;;;;;;;;;;;;;6242047;23;19918;-76
2022/09/18 19:32:38;;;;;;;;;;;;;;;;;;6242778;23;19911;-76
2022/09/18 19:35:04;;;;;;;;;;;;;;;;;;6240297;23;19918;-75
2022/09/18 19:37:29;;;;;;;;;;;;;;;;;;6245604;23;20424;-76
2022/09/18 19:39:55;;;;;;;;;;;;;;;;;;6242024;23;19911;-77
2022/09/18 19:42:20;;;;;;;;;;;;;;;;;;6243602;23;19918;-77
2022/09/18 19:44:46;;;;;;;;;;;;;;;;;;6241678;23;19985;-75
2022/09/18 19:47:11;;;;;;;;;;;;;;;;;;6241007;23;20505;-76
2022/09/18 19:49:37;;;;;;;;;;;;;;;;;;6241192;23;19919;-77
2022/09/18 19:52:03;;;;;;;;;;;;;;;;;;6240152;23;19918;-78
2022/09/18 19:54:29;;;;;;;;;;;;;;;;;;6239295;23;19911;-77
2022/09/18 19:56:56;;;;;;;;;;;;;;;;;;6239895;23;20222;-77
2022/09/18 19:59:22;;;;;;;;;;;;;;;;;;6240413;23;20345;-75
2022/09/18 20:01:48;;;;;;;;;;;;;;;;;;6214322;23;19922;-79
2022/09/18 20:04:13;;;;;;;;;;;;;;;;;;6240293;23;19920;-78
2022/09/18 20:06:41;;;;;;;;;;;;;;;;;;6241564;23;19989;-81
2022/09/18 20:09:06;;;;;;;;;;;;;;;;;;6214675;23;19997;-81
2022/09/18 20:11:32;;;;;;;;;;;;;;;;;;6242325;23;20316;-80
2022/09/18 20:13:57;;;;;;;;;;;;;;;;;;6240680;23;20311;-81
2022/09/18 20:16:23;;;;;;;;;;;;;;;;;;6241500;23;19912;-80
2022/09/18 20:18:48;;;;;;;;;;;;;;;;;;6241588;23;19911;-79
2022/09/18 20:21:14;;;;;;;;;;;;;;;;;;6241092;23;20403;-79
2022/09/18 20:23:40;;;;;;;;;;;;;;;;;;6242385;23;20343;-79
2022/09/18 20:26:05;;;;;;;;;;;;;;;;;;6241939;23;19966;-79
2022/09/18 20:28:32;;;;;;;;;;;;;;;;;;6241198;23;20333;-77
2022/09/18 20:30:58;;;;;;;;;;;;;;;;;;6241754;23;19962;-78
2022/09/18 20:33:24;;;;;;;;;;;;;;;;;;6241068;23;19912;-79
2022/09/18 20:35:51;;;;;;;;;;;;;;;;;;6242131;23;19918;-79
2022/09/18 20:38:17;;;;;;;;;;;;;;;;;;6242864;23;20338;-78
2022/09/18 20:40:43;;;;;;;;;;;;;;;;;;6242167;23;19939;-78
2022/09/18 20:43:09;;;;;;;;;;;;;;;;;;6240626;23;20344;-79
2022/09/18 20:45:35;;;;;;;;;;;;;;;;;;6241872;23;19919;-78
2022/09/18 20:48:02;;;;;;;;;;;;;;;;;;6242173;23;19926;-79
2022/09/18 20:50:28;;;;;;;;;;;;;;;;;;6241800;23;20159;-79
2022/09/18 20:52:54;;;;;;;;;;;;;;;;;;6240786;23;20237;-80
2022/09/18 20:55:19;;;;;;;;;;;;;;;;;;6215289;23;19919;-80
2022/09/18 20:57:45;;;;;;;;;;;;;;;;;;6242606;23;20240;-81
2022/09/18 21:00:11;;;;;;;;;;;;;;;;;;6241700;23;19912;-78
2022/09/18 21:02:37;;;;;;;;;;;;;;;;;;6241527;23;19947;-78
2022/09/18 21:05:03;;;;;;;;;;;;;;;;;;6241457;23;19926;-78
2022/09/18 21:07:31;;;;;;;;;;;;;;;;;;6242022;23;20267;-79
2022/09/18 21:09:56;;;;;;;;;;;;;;;;;;6241704;22;19911;-82
2022/09/18 21:12:22;;;;;;;;;;;;;;;;;;6242437;23;19916;-80
2022/09/18 21:14:47;;;;;;;;;;;;;;;;;;6242167;23;19912;-79
2022/09/18 21:17:13;;;;;;;;;;;;;;;;;;6241177;23;19915;-80
2022/09/18 21:19:39;;;;;;;;;;;;;;;;;;6240743;23;19919;-81
2022/09/18 21:22:04;;;;;;;;;;;;;;;;;;6241506;23;20259;-81
2022/09/18 21:24:31;;;;;;;;;;;;;;;;;;6215089;23;19965;-78
2022/09/18 21:26:56;;;;;;;;;;;;;;;;;;6241416;23;20380;-78
2022/09/18 21:29:22;;;;;;;;;;;;;;;;;;6241867;23;19919;-75
2022/09/18 21:31:48;;;;;;;;;;;;;;;;;;6241668;23;20297;-75
2022/09/18 21:34:13;;;;;;;;;;;;;;;;;;6245902;23;19912;-75
2022/09/18 21:36:42;;;;;;;;;;;;;;;;;;6248107;23;19912;-74
2022/09/18 21:39:07;;;;;;;;;;;;;;;;;;6241583;23;19965;-75
2022/09/18 21:41:38;;;;;;;;;;;;;;;;;;6241517;23;20303;-74
2022/09/18 21:44:05;;;;;;;;;;;;;;;;;;6241521;23;19926;-75
2022/09/18 21:46:31;;;;;;;;;;;;;;;;;;6241851;23;19911;-74
2022/09/18 21:48:57;;;;;;;;;;;;;;;;;;6241882;23;19954;-75
2022/09/18 21:51:22;;;;;;;;;;;;;;;;;;6241759;23;19915;-75
2022/09/18 21:53:48;;;;;;;;;;;;;;;;;;6214834;23;19939;-74
2022/09/18 21:56:14;;;;;;;;;;;;;;;;;;6242391;23;20391;-75
2022/09/18 21:58:41;;;;;;;;;;;;;;;;;;6252039;23;19911;-75
2022/09/18 22:01:07;;;;;;;;;;;;;;;;;;6253433;23;19911;-74
2022/09/18 22:03:33;;;;;;;;;;;;;;;;;;6247592;23;19998;-74
2022/09/18 22:05:58;;;;;;;;;;;;;;;;;;6214819;23;19915;-74
2022/09/18 22:08:24;;;;;;;;;;;;;;;;;;6242077;23;19911;-73
2022/09/18 22:10:50;;;;;;;;;;;;;;;;;;6240954;22;19953;-74
2022/09/18 22:13:15;;;;;;;;;;;;;;;;;;6240907;23;19934;-74
2022/09/18 22:15:41;;;;;;;;;;;;;;;;;;6214366;23;20377;-75
2022/09/18 22:18:06;;;;;;;;;;;;;;;;;;6210063;23;20352;-75
2022/09/18 22:20:32;;;;;;;;;;;;;;;;;;6241402;23;19918;-74
2022/09/18 22:22:58;;;;;;;;;;;;;;;;;;6241575;23;19958;-75
2022/09/18 22:25:23;;;;;;;;;;;;;;;;;;6241078;23;19962;-75
2022/09/18 22:27:50;;;;;;;;;;;;;;;;;;6241416;23;19918;-75
2022/09/18 22:30:15;;;;;;;;;;;;;;;;;;6240871;23;19919;-75
2022/09/18 22:32:41;;;;;;;;;;;;;;;;;;6241454;23;19916;-76
2022/09/18 22:35:07;;;;;;;;;;;;;;;;;;6240762;23;20260;-75
2022/09/18 22:37:32;;;;;;;;;;;;;;;;;;6240985;23;19918;-76
2022/09/18 22:39:58;;;;;;;;;;;;;;;;;;6241246;23;19918;-77
2022/09/18 22:42:23;;;;;;;;;;;;;;;;;;6240771;23;19950;-76
2022/09/18 22:44:49;;;;;;;;;;;;;;;;;;6240970;23;19926;-77
2022/09/18 22:47:14;;;;;;;;;;;;;;;;;;6240781;23;19918;-77
2022/09/18 22:49:40;;;;;;;;;;;;;;;;;;6241368;23;19972;-76
2022/09/18 22:52:06;;;;;;;;;;;;;;;;;;6241296;23;20011;-76
2022/09/18 22:54:31;;;;;;;;;;;;;;;;;;6241657;23;19915;-76
2022/09/18 22:56:57;;;;;;;;;;;;;;;;;;6241399;23;19942;-77
2022/09/18 22:59:23;;;;;;;;;;;;;;;;;;6241184;23;19919;-77
2022/09/18 23:01:49;;;;;;;;;;;;;;;;;;6214343;23;19977;-77
2022/09/18 23:04:17;;;;;;;;;;;;;;;;;;6240830;23;20245;-77
2022/09/18 23:06:43;;;;;;;;;;;;;;;;;;6240825;23;19957;-78
2022/09/18 23:09:08;;;;;;;;;;;;;;;;;;6240675;22;20423;-77
2022/09/18 23:11:34;;;;;;;;;;;;;;;;;;6240605;23;19918;-78
2022/09/18 23:14:00;;;;;;;;;;;;;;;;;;6214160;23;19920;-77
2022/09/18 23:16:25;;;;;;;;;;;;;;;;;;6239694;23;19965;-77
2022/09/18 23:18:52;;;;;;;;;;;;;;;;;;6240575;23;19926;-78
2022/09/18 23:21:17;;;;;;;;;;;;;;;;;;6240537;23;19982;-77
2022/09/18 23:23:43;;;;;;;;;;;;;;;;;;6241127;23;20332;-78
2022/09/18 23:26:08;;;;;;;;;;;;;;;;;;6213548;23;19915;-78
2022/09/18 23:28:34;;;;;;;;;;;;;;;;;;6241864;23;19995;-77
2022/09/18 23:31:00;;;;;;;;;;;;;;;;;;6244323;23;19937;-77
2022/09/18 23:33:26;;;;;;;;;;;;;;;;;;6243245;23;19911;-76
2022/09/18 23:35:51;;;;;;;;;;;;;;;;;;6238117;23;20002;-77
2022/09/18 23:38:17;;;;;;;;;;;;;;;;;;6239297;23;19911;-77
2022/09/18 23:40:42;;;;;;;;;;;;;;;;;;6239967;23;20305;-76
2022/09/18 23:43:08;;;;;;;;;;;;;;;;;;6241276;23;19918;-78
2022/09/18 23:45:33;;;;;;;;;;;;;;;;;;6240910;23;19941;-77
2022/09/18 23:47:59;;;;;;;;;;;;;;;;;;6241521;23;19907;-76
2022/09/18 23:50:24;;;;;;;;;;;;;;;;;;6241775;23;19919;-77
2022/09/18 23:52:50;;;;;;;;;;;;;;;;;;6241093;23;20370;-77
2022/09/18 23:55:16;;;;;;;;;;;;;;;;;;6214487;23;19911;-76